createdAt,value
2019-01-06T11:44:49.073Z,11.90
2019-01-06T11:47:42.966Z,10.53
2019-01-06T11:56:03.827Z,10.43
2019-01-06T11:58:46.881Z,10.93
2019-01-06T12:01:46.685Z,12.03
2019-01-06T12:04:33.422Z,11.30
2019-01-06T12:07:33.441Z,11.50
2019-01-06T12:10:19.892Z,9.83
2019-01-06T12:13:10.730Z,9.13
2019-01-06T12:15:55.728Z,10.37
2019-01-06T12:18:43.735Z,9.57
2019-01-06T12:21:30.256Z,10.20
2019-01-06T12:24:18.282Z,9.60
2019-01-06T12:27:01.126Z,9.63
2019-01-06T12:29:58.131Z,10.13
2019-01-06T12:32:44.737Z,10.57
2019-01-06T12:35:31.405Z,10.37
2019-01-06T12:38:17.848Z,11.80
2019-01-06T12:41:20.752Z,12.53
2019-01-06T12:44:08.765Z,11.60
2019-01-06T12:46:56.925Z,12.57
2019-01-06T12:49:44.927Z,13.10
2019-01-06T12:52:38.961Z,11.93
2019-01-06T12:55:19.087Z,13.27
2019-01-06T12:58:05.570Z,15.10
2019-01-06T13:01:05.635Z,12.43
2019-01-06T13:04:07.836Z,13.17
2019-01-06T13:07:01.409Z,13.13
2019-01-06T13:09:48.147Z,13.83
2019-01-06T13:12:39.262Z,14.07
2019-01-06T13:15:25.689Z,14.77
2019-01-06T13:18:07.663Z,15.23
2019-01-06T13:21:13.948Z,18.90
2019-01-06T13:24:05.583Z,16.57
2019-01-06T13:26:52.266Z,16.37
2019-01-06T13:29:38.975Z,16.13
2019-01-06T13:32:30.027Z,16.33
2019-01-06T13:35:33.208Z,16.63
2019-01-06T13:38:19.923Z,15.53
2019-01-06T13:41:06.293Z,14.37
2019-01-06T13:44:12.339Z,13.40
2019-01-06T13:46:59.208Z,12.43
2019-01-06T13:49:58.938Z,10.27
2019-01-06T13:52:46.062Z,8.67
2019-01-06T13:55:53.392Z,8.17
2019-01-06T13:58:37.359Z,7.20
2019-01-06T14:01:28.412Z,6.70
2019-01-06T14:04:14.943Z,6.43
2019-01-06T14:07:01.712Z,7.03
2019-01-06T14:09:48.434Z,5.67
2019-01-06T14:12:45.395Z,5.93
2019-01-06T14:15:35.386Z,6.53
2019-01-06T14:18:15.466Z,6.70
2019-01-06T14:21:06.583Z,8.13
2019-01-06T14:23:57.462Z,8.00
2019-01-06T14:26:45.669Z,10.03
2019-01-06T14:29:51.866Z,12.00
2019-01-06T14:32:32.450Z,13.70
2019-01-06T14:35:26.253Z,14.40
2019-01-06T14:38:20.452Z,14.43
2019-01-06T14:41:07.227Z,15.90
2019-01-06T14:44:07.402Z,14.40
2019-01-06T14:47:10.688Z,14.80
2019-01-06T14:50:10.517Z,14.80
2019-01-06T14:52:58.528Z,14.80
2019-01-06T14:55:45.295Z,14.10
2019-01-06T14:58:33.439Z,14.37
2019-01-06T15:01:24.499Z,13.83
2019-01-06T15:04:21.476Z,12.80
2019-01-06T15:07:08.386Z,12.10
2019-01-06T15:10:05.485Z,11.67
2019-01-06T15:13:04.491Z,12.93
2019-01-06T15:16:10.490Z,11.20
2019-01-06T15:19:06.269Z,12.27
2019-01-06T15:21:53.156Z,10.73
2019-01-06T15:24:40.596Z,9.77
2019-01-06T15:27:27.362Z,10.23
2019-01-06T15:30:14.042Z,9.87
2019-01-06T15:33:02.137Z,11.93
2019-01-06T15:35:56.233Z,9.73
2019-01-06T15:39:07.903Z,10.87
2019-01-06T15:42:00.938Z,10.10
2019-01-06T15:44:51.787Z,9.63
2019-01-06T15:47:39.843Z,9.87
2019-01-06T15:50:30.784Z,10.47
2019-01-06T15:53:13.795Z,10.63
2019-01-06T15:56:06.547Z,10.53
2019-01-06T15:59:03.660Z,11.93
2019-01-06T16:02:00.992Z,11.57
2019-01-06T16:04:47.501Z,12.80
2019-01-06T16:07:34.364Z,12.87
2019-01-06T16:10:20.993Z,12.50
2019-01-06T16:13:23.914Z,12.87
2019-01-06T16:16:11.192Z,13.00
2019-01-06T16:19:04.629Z,13.50
2019-01-06T16:21:53.382Z,12.33
2019-01-06T16:24:44.622Z,11.90
2019-01-06T16:27:44.881Z,10.63
2019-01-06T16:30:47.954Z,13.00
2019-01-06T16:33:31.453Z,13.90
2019-01-06T16:36:17.862Z,12.57
2019-01-06T16:39:04.410Z,13.37
2019-01-06T16:41:55.432Z,12.83
2019-01-06T16:44:41.100Z,13.87
2019-01-06T16:47:32.072Z,12.40
2019-01-06T16:50:20.921Z,11.67
2019-01-06T16:53:21.919Z,12.37
2019-01-06T16:56:16.057Z,11.43
2019-01-06T16:59:01.105Z,11.23
2019-01-06T17:01:51.929Z,11.10
2019-01-06T17:04:55.003Z,11.57
2019-01-06T17:07:41.566Z,9.37
2019-01-06T17:10:42.036Z,11.00
2019-01-06T17:13:36.872Z,11.23
2019-01-06T17:16:23.496Z,11.90
2019-01-06T17:19:23.722Z,13.20
2019-01-06T17:22:29.903Z,12.03
2019-01-06T17:25:14.662Z,11.73
2019-01-06T17:28:17.541Z,11.47
2019-01-06T17:31:06.612Z,11.40
2019-01-06T17:33:59.392Z,11.60
2019-01-06T17:37:00.331Z,10.80
2019-01-06T17:39:57.477Z,11.73
2019-01-06T17:42:54.561Z,12.23
2019-01-06T17:45:45.098Z,12.20
2019-01-06T17:48:35.905Z,13.47
2019-01-06T17:51:27.143Z,12.37
2019-01-06T17:54:26.992Z,12.63
2019-01-06T18:03:19.819Z,10.30
2019-01-06T18:06:08.072Z,11.13
2019-01-06T18:09:14.936Z,12.30
2019-01-06T19:06:42.457Z,14.60
2019-01-06T19:09:30.712Z,14.17
2019-01-06T19:12:14.866Z,15.23
2019-01-06T19:15:01.687Z,13.83
2019-01-06T19:17:48.374Z,13.97
2019-01-06T19:20:35.012Z,13.73
2019-01-06T19:23:28.095Z,13.37
2019-01-06T19:26:18.921Z,14.27
2019-01-06T19:29:12.763Z,13.80
2019-01-06T19:32:09.668Z,13.80
2019-01-06T19:35:15.833Z,15.03
2019-01-06T19:38:12.781Z,15.40
2019-01-06T19:40:58.953Z,15.60
2019-01-06T19:43:52.886Z,15.37
2019-01-06T19:46:40.980Z,15.90
2019-01-06T19:49:32.117Z,15.90
2019-01-06T19:52:18.895Z,14.30
2019-01-06T19:54:59.257Z,15.50
2019-01-06T19:57:47.513Z,15.53
2019-01-06T20:00:35.354Z,15.47
2019-01-06T20:03:33.289Z,15.80
2019-01-06T20:06:20.031Z,16.27
2019-01-06T20:09:20.199Z,15.70
2019-01-06T20:12:06.689Z,15.73
2019-01-06T20:14:53.612Z,16.73
2019-01-06T20:18:00.045Z,15.87
2019-01-06T20:20:46.448Z,17.80
2019-01-06T20:23:36.359Z,16.70
2019-01-06T20:26:33.669Z,17.40
2019-01-06T20:29:20.633Z,16.70
2019-01-06T20:32:09.860Z,17.10
2019-01-06T20:34:57.900Z,16.63
2019-01-06T20:37:51.022Z,17.27
2019-01-06T20:40:39.022Z,17.33
2019-01-06T20:43:30.055Z,16.83
2019-01-06T20:46:16.647Z,18.10
2019-01-06T20:49:03.037Z,16.97
2019-01-06T20:51:51.131Z,16.67
2019-01-06T20:54:54.656Z,18.20
2019-01-06T20:57:42.814Z,19.20
2019-01-06T21:00:29.191Z,18.57
2019-01-06T21:03:23.270Z,20.57
2019-01-06T21:06:09.772Z,19.20
2019-01-06T21:08:56.167Z,20.33
2019-01-06T21:11:44.223Z,19.13
2019-01-06T21:14:35.365Z,20.00
2019-01-06T21:17:18.494Z,20.40
2019-01-06T21:20:24.564Z,20.17
2019-01-06T21:23:18.441Z,20.57
2019-01-06T21:26:04.827Z,20.23
2019-01-06T21:28:55.929Z,19.93
2019-01-06T21:31:42.682Z,20.03
2019-01-06T21:34:29.190Z,20.57
2019-01-06T21:37:15.733Z,19.63
2019-01-06T21:40:00.694Z,20.57
2019-01-06T21:42:47.314Z,20.33
2019-01-06T21:45:33.995Z,19.23
2019-01-06T21:48:20.679Z,20.57
2019-01-06T21:51:07.104Z,21.10
2019-01-06T21:54:04.394Z,22.40
2019-01-06T21:56:58.757Z,22.23
2019-01-06T21:59:45.224Z,21.50
2019-01-06T22:02:33.283Z,22.23
2019-01-06T22:05:10.703Z,22.33
2019-01-06T22:07:52.180Z,21.17
2019-01-06T22:10:45.463Z,22.43
2019-01-06T22:13:39.292Z,23.90
2019-01-06T22:16:27.328Z,22.43
2019-01-06T22:19:13.664Z,23.83
2019-01-06T22:21:55.450Z,24.23
2019-01-06T22:24:42.113Z,23.30
2019-01-06T22:27:38.557Z,22.20
2019-01-06T22:30:38.840Z,24.57
2019-01-06T22:33:41.763Z,23.03
2019-01-06T22:36:45.497Z,26.83
2019-01-06T22:39:22.092Z,24.80
2019-01-06T22:42:22.189Z,26.13
2019-01-06T22:45:20.235Z,25.60
2019-01-06T22:48:19.193Z,25.30
2019-01-06T22:51:07.002Z,26.03
2019-01-06T22:53:53.660Z,26.50
2019-01-06T22:56:47.530Z,26.63
2019-01-06T22:59:35.574Z,27.07
2019-01-06T23:02:19.409Z,29.40
2019-01-06T23:05:22.429Z,28.30
2019-01-06T23:08:19.505Z,28.93
2019-01-06T23:11:10.564Z,28.50
2019-01-06T23:13:56.936Z,30.13
2019-01-06T23:16:43.661Z,30.30
2019-01-06T23:19:46.649Z,29.17
2019-01-06T23:22:40.646Z,30.27
2019-01-06T23:25:31.687Z,29.63
2019-01-06T23:28:31.577Z,29.37
2019-01-06T23:31:22.436Z,30.43
2019-01-06T23:34:10.421Z,29.23
2019-01-06T23:36:49.514Z,28.27
2019-01-06T23:39:35.831Z,28.97
2019-01-06T23:42:29.398Z,28.03
2019-01-06T23:45:15.747Z,28.40
2019-01-06T23:47:56.209Z,29.40
2019-01-06T23:50:42.657Z,29.97
2019-01-06T23:53:36.517Z,28.53
2019-01-06T23:56:27.315Z,28.60
2019-01-06T23:59:30.494Z,28.20
